createdAt,value
2023-01-19T00:01:43.910Z,100289.60
2023-01-19T00:04:12.470Z,100292.19
2023-01-19T00:06:40.857Z,100290.70
2023-01-19T00:09:09.326Z,100291.25
2023-01-19T00:11:38.014Z,100287.55
2023-01-19T00:14:06.416Z,100290.39
2023-01-19T00:16:34.836Z,100291.82
2023-01-19T00:19:03.827Z,100292.75
2023-01-19T00:21:32.346Z,100297.69
2023-01-19T00:24:01.036Z,100298.11
2023-01-19T00:26:29.514Z,100297.17
2023-01-19T00:28:58.002Z,100293.55
2023-01-19T00:31:26.412Z,100297.95
2023-01-19T00:33:54.962Z,100299.17
2023-01-19T00:36:23.338Z,100302.18
2023-01-19T00:38:51.743Z,100301.97
2023-01-19T00:41:40.288Z,100301.93
2023-01-19T00:44:09.062Z,100300.98
2023-01-19T00:46:37.747Z,100300.92
2023-01-19T00:49:06.441Z,100299.58
2023-01-19T00:51:34.924Z,100302.73
2023-01-19T00:54:05.342Z,100302.95
2023-01-19T00:56:34.241Z,100304.79
2023-01-19T00:59:02.623Z,100302.86
2023-01-19T01:01:44.995Z,100303.91
2023-01-19T01:04:14.863Z,100303.48
2023-01-19T01:06:43.221Z,100303.23
2023-01-19T01:09:14.263Z,100302.67
2023-01-19T01:11:43.660Z,100300.59
2023-01-19T01:14:13.468Z,100298.45
2023-01-19T01:16:42.179Z,100295.30
2023-01-19T01:19:10.545Z,100293.10
2023-01-19T01:21:39.431Z,100297.02
2023-01-19T01:24:08.860Z,100294.48
2023-01-19T01:26:37.120Z,100291.63
2023-01-19T01:29:06.823Z,100296.08
2023-01-19T01:31:35.224Z,100292.64
2023-01-19T01:34:03.680Z,100289.21
2023-01-19T01:36:33.700Z,100287.19
2023-01-19T01:39:02.605Z,100281.92
2023-01-19T01:41:31.706Z,100279.63
2023-01-19T01:44:02.003Z,100278.36
2023-01-19T01:46:31.929Z,100274.58
2023-01-19T01:49:10.867Z,100272.27
2023-01-19T01:51:42.419Z,100265.41
2023-01-19T01:54:19.185Z,100267.48
2023-01-19T01:56:53.296Z,100270.73
2023-01-19T01:59:29.529Z,100271.41
2023-01-19T02:02:23.645Z,100268.17
2023-01-19T02:05:08.616Z,100265.29
2023-01-19T02:08:23.390Z,100263.77
2023-01-19T02:11:10.399Z,100257.73
2023-01-19T02:13:40.414Z,100258.13
2023-01-19T02:16:10.633Z,100256.55
2023-01-19T02:18:40.047Z,100259.22
2023-01-19T02:21:19.380Z,100255.08
2023-01-19T02:23:59.436Z,100254.20
2023-01-19T02:26:35.424Z,100253.86
2023-01-19T02:29:08.072Z,100252.66
2023-01-19T02:31:38.476Z,100253.60
2023-01-19T02:34:09.722Z,100257.03
2023-01-19T02:36:43.238Z,100258.93
2023-01-19T02:39:11.925Z,100265.69
2023-01-19T02:41:48.138Z,100263.49
2023-01-19T02:44:17.182Z,100262.73
2023-01-19T02:46:45.563Z,100263.77
2023-01-19T02:49:13.941Z,100262.02
2023-01-19T02:51:44.059Z,100262.83
2023-01-19T02:54:29.164Z,100263.44
2023-01-19T02:57:06.113Z,100261.38
2023-01-19T02:59:46.597Z,100264.93
2023-01-19T03:02:25.241Z,100262.77
2023-01-19T03:05:11.903Z,100261.88
2023-01-19T03:07:58.920Z,100263.20
2023-01-19T03:10:32.629Z,100268.60
2023-01-19T03:13:10.837Z,100269.48
2023-01-19T03:15:57.199Z,100268.22
2023-01-19T03:18:28.275Z,100264.23
2023-01-19T03:21:01.060Z,100267.42
2023-01-19T03:23:32.186Z,100266.11
2023-01-19T03:26:01.417Z,100263.60
2023-01-19T03:28:30.910Z,100258.50
2023-01-19T03:31:22.303Z,100259.46
2023-01-19T03:33:54.113Z,100257.73
2023-01-19T03:36:55.032Z,100260.61
2023-01-19T03:39:24.753Z,100262.58
2023-01-19T03:41:57.593Z,100271.46
2023-01-19T03:44:27.852Z,100276.11
2023-01-19T03:46:57.250Z,100270.86
2023-01-19T03:49:26.249Z,100268.34
2023-01-19T03:51:59.259Z,100268.04
2023-01-19T03:54:28.461Z,100262.34
2023-01-19T03:56:56.811Z,100262.42
2023-01-19T03:59:25.191Z,100258.27
2023-01-19T04:01:53.810Z,100255.23
2023-01-19T04:04:22.359Z,100248.98
2023-01-19T04:06:50.839Z,100249.98
2023-01-19T04:09:20.129Z,100249.39
2023-01-19T04:11:48.722Z,100250.64
2023-01-19T04:14:17.214Z,100254.85
2023-01-19T04:16:45.685Z,100266.23
2023-01-19T04:19:14.276Z,100265.98
2023-01-19T04:21:42.751Z,100270.34
2023-01-19T04:24:11.441Z,100267.54
2023-01-19T04:26:39.820Z,100265.14
2023-01-19T04:29:08.449Z,100266.80
2023-01-19T04:31:37.270Z,100266.55
2023-01-19T04:34:05.781Z,100259.59
2023-01-19T04:36:34.168Z,100264.01
2023-01-19T04:39:02.643Z,100257.05
2023-01-19T04:41:31.323Z,100256.31
2023-01-19T04:43:59.908Z,100253.43
2023-01-19T04:46:28.721Z,100254.09
2023-01-19T04:48:57.083Z,100252.46
2023-01-19T04:51:25.557Z,100254.14
2023-01-19T04:53:54.115Z,100249.74
2023-01-19T04:56:22.735Z,100249.04
2023-01-19T04:58:51.028Z,100255.00
2023-01-19T05:01:19.512Z,100251.72
2023-01-19T05:03:48.068Z,100259.91
2023-01-19T05:06:16.656Z,100267.16
2023-01-19T05:08:45.516Z,100271.77
2023-01-19T05:11:14.129Z,100280.53
2023-01-19T05:13:42.506Z,100286.71
2023-01-19T05:16:11.235Z,100292.23
2023-01-19T05:18:40.406Z,100293.53
2023-01-19T05:21:08.695Z,100292.56
2023-01-19T05:23:37.162Z,100291.14
2023-01-19T05:26:05.949Z,100293.39
2023-01-19T05:28:34.665Z,100295.48
2023-01-19T05:31:03.085Z,100296.28
2023-01-19T05:33:32.099Z,100294.77
2023-01-19T05:36:00.486Z,100298.23
2023-01-19T05:38:35.179Z,100300.13
2023-01-19T05:41:04.207Z,100306.91
2023-01-19T05:43:32.805Z,100301.66
2023-01-19T05:46:01.476Z,100297.89
2023-01-19T05:48:29.853Z,100295.16
2023-01-19T05:50:59.765Z,100299.80
2023-01-19T05:53:28.985Z,100305.12
2023-01-19T05:56:02.518Z,100306.98
2023-01-19T05:58:31.253Z,100312.31
2023-01-19T06:01:03.760Z,100320.27
2023-01-19T06:03:36.389Z,100318.05
2023-01-19T06:06:05.305Z,100320.59
2023-01-19T06:08:33.679Z,100320.83
2023-01-19T06:11:02.273Z,100320.23
2023-01-19T06:13:30.643Z,100324.02
2023-01-19T06:16:02.870Z,100325.62
2023-01-19T06:18:31.299Z,100324.70
2023-01-19T06:20:59.878Z,100323.19
2023-01-19T06:23:31.228Z,100325.73
2023-01-19T06:25:59.817Z,100324.58
2023-01-19T06:28:28.206Z,100324.93
2023-01-19T06:30:57.451Z,100323.31
2023-01-19T06:33:26.308Z,100326.55
2023-01-19T06:35:55.076Z,100334.43
2023-01-19T06:38:23.867Z,100334.62
2023-01-19T06:41:02.892Z,100327.87
2023-01-19T06:43:31.986Z,100336.91
2023-01-19T06:46:01.008Z,100343.53
2023-01-19T06:48:29.362Z,100343.49
2023-01-19T06:50:59.475Z,100341.61
2023-01-19T06:53:29.501Z,100344.40
2023-01-19T06:56:02.447Z,100345.36
2023-01-19T06:58:32.298Z,100350.05
2023-01-19T07:01:03.638Z,100349.22
2023-01-19T07:03:33.054Z,100347.39
2023-01-19T07:06:02.876Z,100352.52
2023-01-19T07:08:31.247Z,100352.86
2023-01-19T07:11:26.057Z,100353.70
2023-01-19T07:13:55.037Z,100360.89
2023-01-19T07:16:23.490Z,100360.70
2023-01-19T07:18:52.112Z,100362.09
2023-01-19T07:21:20.987Z,100358.35
2023-01-19T07:23:50.534Z,100364.27
2023-01-19T07:26:21.961Z,100369.05
2023-01-19T07:28:51.044Z,100369.09
2023-01-19T07:31:20.418Z,100369.23
2023-01-19T07:33:48.951Z,100371.86
2023-01-19T07:36:17.464Z,100374.73
2023-01-19T07:38:45.905Z,100369.09
2023-01-19T07:41:14.376Z,100366.43
2023-01-19T07:43:42.772Z,100364.51
2023-01-19T07:46:11.205Z,100370.60
2023-01-19T07:48:39.818Z,100363.14
2023-01-19T07:51:12.998Z,100365.80
2023-01-19T07:53:42.224Z,100368.55
2023-01-19T07:56:11.441Z,100367.39
2023-01-19T07:58:40.303Z,100361.36
2023-01-19T08:01:13.595Z,100366.95
2023-01-19T08:03:42.805Z,100370.40
2023-01-19T08:06:21.109Z,100371.02
2023-01-19T08:08:49.485Z,100371.55
2023-01-19T08:11:18.177Z,100370.84
2023-01-19T08:13:46.578Z,100360.84
2023-01-19T08:16:15.047Z,100367.77
2023-01-19T08:18:43.923Z,100371.46
2023-01-19T08:21:12.406Z,100371.57
2023-01-19T08:23:40.966Z,100376.77
2023-01-19T08:26:20.949Z,100377.23
2023-01-19T08:28:49.323Z,100371.92
2023-01-19T08:31:21.032Z,100371.92
2023-01-19T08:33:51.201Z,100365.15
2023-01-19T08:36:20.702Z,100369.73
2023-01-19T08:38:49.192Z,100364.70
2023-01-19T08:41:17.993Z,100363.23
2023-01-19T08:43:46.351Z,100361.88
2023-01-19T08:46:21.130Z,100358.03
2023-01-19T08:48:50.723Z,100357.13
2023-01-19T08:51:19.830Z,100355.62
2023-01-19T08:53:48.271Z,100361.04
2023-01-19T08:56:17.696Z,100362.79
2023-01-19T08:58:53.656Z,100361.27
2023-01-19T09:01:32.123Z,100356.39
2023-01-19T09:04:00.627Z,100352.03
2023-01-19T09:06:29.421Z,100352.11
2023-01-19T09:08:58.101Z,100351.06
2023-01-19T09:11:27.819Z,100354.02
2023-01-19T09:13:56.299Z,100350.64
2023-01-19T09:16:27.432Z,100352.08
2023-01-19T09:18:56.027Z,100351.74
2023-01-19T09:21:24.617Z,100356.44
2023-01-19T09:23:55.142Z,100351.17
2023-01-19T09:26:24.164Z,100354.52
2023-01-19T09:28:52.715Z,100353.94
2023-01-19T09:31:21.797Z,100351.89
2023-01-19T09:33:50.403Z,100342.81
2023-01-19T09:36:18.875Z,100336.64
2023-01-19T09:38:47.270Z,100330.94
2023-01-19T09:41:22.375Z,100330.67
2023-01-19T09:43:57.713Z,100326.92
2023-01-19T09:46:29.649Z,100325.99
2023-01-19T09:49:05.096Z,100322.03
2023-01-19T09:51:38.653Z,100319.16
2023-01-19T09:54:13.718Z,100318.11
2023-01-19T09:56:43.438Z,100317.60
2023-01-19T09:59:22.242Z,100321.89
2023-01-19T10:02:27.973Z,100320.48
2023-01-19T10:05:02.805Z,100308.05
2023-01-19T10:07:40.599Z,100306.53
2023-01-19T10:10:32.562Z,100304.86
2023-01-19T10:13:26.927Z,100300.63
2023-01-19T10:16:00.161Z,100297.27
2023-01-19T10:18:48.267Z,100298.89
2023-01-19T10:21:23.358Z,100299.02
2023-01-19T10:23:59.372Z,100294.30
2023-01-19T10:26:34.290Z,100291.92
2023-01-19T10:29:07.261Z,100287.66
2023-01-19T10:31:38.751Z,100286.20
2023-01-19T10:34:07.307Z,100284.40
2023-01-19T10:36:38.160Z,100287.11
2023-01-19T10:39:07.604Z,100276.90
2023-01-19T10:41:51.086Z,100271.86
2023-01-19T10:44:27.179Z,100270.13
2023-01-19T10:46:58.029Z,100266.73
2023-01-19T10:49:39.668Z,100258.74
2023-01-19T10:52:19.078Z,100252.38
2023-01-19T10:54:49.036Z,100249.80
2023-01-19T10:57:28.819Z,100231.38
2023-01-19T10:59:57.576Z,100228.86
2023-01-19T11:02:28.137Z,100231.36
2023-01-19T11:05:02.333Z,100224.66
2023-01-19T11:07:35.397Z,100225.97
2023-01-19T11:10:15.666Z,100224.40
2023-01-19T11:12:46.601Z,100224.79
2023-01-19T11:15:22.139Z,100221.31
2023-01-19T11:17:51.041Z,100232.06
2023-01-19T11:20:23.223Z,100223.40
2023-01-19T11:23:06.015Z,100225.17
2023-01-19T11:25:36.135Z,100224.11
2023-01-19T11:28:04.930Z,100226.73
2023-01-19T11:30:35.464Z,100224.79
2023-01-19T11:33:05.372Z,100212.76
2023-01-19T11:35:39.618Z,100207.95
2023-01-19T11:38:18.599Z,100210.14
2023-01-19T11:41:06.878Z,100210.59
2023-01-19T11:43:48.192Z,100211.34
2023-01-19T11:46:18.706Z,100220.42
2023-01-19T11:48:53.119Z,100217.23
2023-01-19T11:51:22.704Z,100216.16
2023-01-19T11:53:53.952Z,100218.17
2023-01-19T11:56:29.952Z,100226.09
2023-01-19T11:58:58.593Z,100227.36
2023-01-19T12:01:35.092Z,100229.04
2023-01-19T12:04:17.888Z,100225.35
2023-01-19T12:06:50.662Z,100230.86
2023-01-19T12:09:24.925Z,100220.11
2023-01-19T12:12:06.469Z,100220.14
2023-01-19T12:14:58.710Z,100210.73
2023-01-19T12:17:34.272Z,100216.77
2023-01-19T12:20:47.834Z,100216.88
2023-01-19T12:23:37.886Z,100216.11
2023-01-19T12:26:24.799Z,100216.85
2023-01-19T12:28:53.894Z,100213.28
2023-01-19T12:31:23.679Z,100215.70
2023-01-19T12:33:52.293Z,100221.48
2023-01-19T12:36:37.256Z,100219.35
2023-01-19T12:39:14.438Z,100222.94
2023-01-19T12:41:43.362Z,100221.17
2023-01-19T12:44:12.017Z,100222.41
2023-01-19T12:46:55.846Z,100217.55
2023-01-19T12:49:39.258Z,100215.41
2023-01-19T12:52:40.853Z,100211.38
2023-01-19T12:55:15.178Z,100213.55
2023-01-19T12:57:49.183Z,100211.05
2023-01-19T13:00:23.625Z,100215.66
2023-01-19T13:03:00.334Z,100220.23
2023-01-19T13:05:33.210Z,100224.88
2023-01-19T13:08:01.870Z,100219.38
2023-01-19T13:11:05.795Z,100218.73
2023-01-19T13:13:38.053Z,100217.69
2023-01-19T13:16:18.975Z,100218.23
2023-01-19T13:18:59.372Z,100222.18
2023-01-19T13:21:32.990Z,100218.83
2023-01-19T13:24:04.098Z,100220.64
2023-01-19T13:26:38.827Z,100225.34
2023-01-19T13:29:15.102Z,100222.59
2023-01-19T13:31:55.159Z,100224.91
2023-01-19T13:34:26.242Z,100219.82
2023-01-19T13:36:56.831Z,100224.44
2023-01-19T13:39:41.708Z,100226.14
2023-01-19T13:42:28.465Z,100225.63
2023-01-19T13:45:00.207Z,100219.40
2023-01-19T13:47:42.713Z,100213.79
2023-01-19T13:50:19.812Z,100211.88
2023-01-19T13:52:49.262Z,100208.17
2023-01-19T13:55:19.052Z,100213.23
2023-01-19T13:57:49.216Z,100217.04
2023-01-19T14:00:19.445Z,100214.85
2023-01-19T14:02:59.253Z,100212.79
2023-01-19T14:05:38.945Z,100216.29
2023-01-19T14:08:15.180Z,100209.62
2023-01-19T14:10:52.699Z,100211.74
2023-01-19T14:13:26.343Z,100213.31
2023-01-19T14:15:57.821Z,100217.84
2023-01-19T14:18:32.769Z,100217.40
2023-01-19T14:21:08.186Z,100212.30
2023-01-19T14:23:49.686Z,100215.58
2023-01-19T14:26:47.274Z,100215.89
2023-01-19T14:29:31.842Z,100214.34
2023-01-19T14:32:10.328Z,100212.82
2023-01-19T14:34:40.346Z,100211.06
2023-01-19T14:37:20.707Z,100209.45
2023-01-19T14:39:58.508Z,100204.30
2023-01-19T14:42:36.659Z,100203.51
2023-01-19T14:45:09.124Z,100195.46
2023-01-19T14:47:40.375Z,100195.58
2023-01-19T14:50:17.929Z,100195.67
2023-01-19T14:53:18.773Z,100198.52
2023-01-19T14:55:51.563Z,100203.33
2023-01-19T14:58:21.469Z,100203.42
2023-01-19T15:00:50.415Z,100206.29
2023-01-19T15:03:18.740Z,100209.56
2023-01-19T15:05:48.143Z,100218.27
2023-01-19T15:08:19.769Z,100218.09
2023-01-19T15:10:48.281Z,100222.20
2023-01-19T15:13:20.043Z,100225.16
2023-01-19T15:15:50.152Z,100223.35
2023-01-19T15:18:24.068Z,100229.45
2023-01-19T15:20:55.829Z,100232.39
2023-01-19T15:23:24.518Z,100237.48
2023-01-19T15:25:53.303Z,100247.04
2023-01-19T15:28:21.886Z,100250.70
2023-01-19T15:30:50.313Z,100253.55
2023-01-19T15:33:24.283Z,100249.76
2023-01-19T15:35:53.384Z,100244.21
2023-01-19T15:38:22.783Z,100241.81
2023-01-19T15:40:51.660Z,100238.84
2023-01-19T15:43:21.693Z,100236.89
2023-01-19T15:45:53.964Z,100237.81
2023-01-19T15:48:22.747Z,100242.73
2023-01-19T15:50:51.149Z,100244.91
2023-01-19T15:53:21.862Z,100245.37
2023-01-19T15:55:57.481Z,100244.00
2023-01-19T15:58:25.997Z,100240.52
2023-01-19T16:00:58.913Z,100246.10
2023-01-19T16:03:27.477Z,100246.30
2023-01-19T16:05:55.962Z,100240.83
2023-01-19T16:08:24.325Z,100243.98
2023-01-19T16:10:52.913Z,100246.17
2023-01-19T16:13:21.387Z,100250.70
2023-01-19T16:15:49.979Z,100253.14
2023-01-19T16:18:18.357Z,100259.09
2023-01-19T16:20:46.732Z,100271.07
2023-01-19T16:23:15.795Z,100276.59
2023-01-19T16:25:44.537Z,100281.27
2023-01-19T16:28:13.026Z,100279.52
2023-01-19T16:30:41.741Z,100277.40
2023-01-19T16:33:11.882Z,100276.39
2023-01-19T16:35:40.177Z,100274.23
2023-01-19T16:38:09.701Z,100277.20
2023-01-19T16:40:38.383Z,100285.22
2023-01-19T16:43:06.868Z,100283.21
2023-01-19T16:45:35.286Z,100288.70
2023-01-19T16:48:03.925Z,100284.83
2023-01-19T16:50:32.300Z,100288.42
2023-01-19T16:53:00.781Z,100286.54
2023-01-19T16:55:29.164Z,100284.98
2023-01-19T16:57:57.644Z,100286.00
2023-01-19T17:00:26.038Z,100285.23
2023-01-19T17:02:54.539Z,100283.46
2023-01-19T17:05:24.532Z,100287.80
2023-01-19T17:07:53.207Z,100292.39
2023-01-19T17:10:21.694Z,100292.42
2023-01-19T17:12:50.170Z,100299.23
2023-01-19T17:15:18.663Z,100303.38
2023-01-19T17:17:47.041Z,100304.34
2023-01-19T17:20:16.033Z,100308.84
2023-01-19T17:22:44.306Z,100307.38
2023-01-19T17:25:12.688Z,100306.13
2023-01-19T17:27:41.063Z,100312.86
2023-01-19T17:30:10.715Z,100312.73
2023-01-19T17:32:39.355Z,100311.74
2023-01-19T17:35:08.613Z,100314.84
2023-01-19T17:37:36.947Z,100314.02
2023-01-19T17:40:06.113Z,100316.89
2023-01-19T17:42:34.413Z,100315.03
2023-01-19T17:45:02.920Z,100309.23
2023-01-19T17:47:31.483Z,100305.05
2023-01-19T17:49:59.863Z,100306.77
2023-01-19T17:52:28.251Z,100303.70
2023-01-19T17:54:56.725Z,100304.09
2023-01-19T17:57:25.300Z,100309.48
2023-01-19T17:59:53.790Z,100315.15
2023-01-19T18:02:24.864Z,100313.13
2023-01-19T18:04:53.838Z,100317.65
2023-01-19T18:07:22.402Z,100312.29
2023-01-19T18:09:52.038Z,100310.78
2023-01-19T18:12:20.700Z,100313.54
2023-01-19T18:14:50.820Z,100311.12
2023-01-19T18:17:20.017Z,100316.91
2023-01-19T18:19:49.346Z,100320.70
2023-01-19T18:22:18.471Z,100317.83
2023-01-19T18:24:49.249Z,100317.05
2023-01-19T18:27:17.950Z,100318.64
2023-01-19T18:29:46.535Z,100318.60
2023-01-19T18:32:14.901Z,100318.55
2023-01-19T18:34:43.380Z,100323.65
2023-01-19T18:37:11.863Z,100324.95
2023-01-19T18:39:40.248Z,100330.06
2023-01-19T18:42:08.622Z,100335.92
2023-01-19T18:44:37.416Z,100340.66
2023-01-19T18:47:05.685Z,100339.78
2023-01-19T18:49:34.078Z,100337.05
2023-01-19T18:52:04.288Z,100334.88
2023-01-19T18:54:32.769Z,100337.40
2023-01-19T18:57:01.156Z,100344.59
2023-01-19T18:59:29.633Z,100347.20
2023-01-19T19:02:01.683Z,100347.71
2023-01-19T19:04:30.185Z,100354.45
2023-01-19T19:06:58.682Z,100360.91
2023-01-19T19:09:27.248Z,100358.27
2023-01-19T19:11:55.645Z,100364.73
2023-01-19T19:14:24.107Z,100356.94
2023-01-19T19:16:52.490Z,100354.94
2023-01-19T19:19:21.069Z,100354.86
2023-01-19T19:21:49.485Z,100356.84
2023-01-19T19:24:18.033Z,100354.75
2023-01-19T19:26:46.414Z,100356.27
2023-01-19T19:29:14.893Z,100357.15
2023-01-19T19:31:43.519Z,100350.79
2023-01-19T19:34:12.881Z,100353.36
2023-01-19T19:36:42.310Z,100354.36
2023-01-19T19:39:10.669Z,100361.17
2023-01-19T19:41:39.352Z,100368.18
2023-01-19T19:44:07.731Z,100361.79
2023-01-19T19:46:36.239Z,100363.12
2023-01-19T19:49:05.115Z,100364.84
2023-01-19T19:51:33.609Z,100369.83
2023-01-19T19:54:02.066Z,100371.05
2023-01-19T19:56:32.000Z,100376.60
2023-01-19T19:59:01.291Z,100375.64
2023-01-19T20:01:33.155Z,100382.69
2023-01-19T20:04:09.391Z,100389.34
2023-01-19T20:06:41.656Z,100391.48
2023-01-19T20:09:12.939Z,100394.17
2023-01-19T20:11:41.514Z,100396.34
2023-01-19T20:14:11.939Z,100402.98
2023-01-19T20:16:40.346Z,100409.46
2023-01-19T20:19:08.799Z,100411.50
2023-01-19T20:21:39.261Z,100415.08
2023-01-19T20:24:10.812Z,100417.73
2023-01-19T20:26:42.243Z,100414.79
2023-01-19T20:29:11.321Z,100417.96
2023-01-19T20:31:44.379Z,100415.84
2023-01-19T20:34:14.850Z,100420.20
2023-01-19T20:36:44.761Z,100421.48
2023-01-19T20:39:13.341Z,100421.67
2023-01-19T20:41:45.928Z,100428.06
2023-01-19T20:44:17.370Z,100425.73
2023-01-19T20:46:46.058Z,100430.67
2023-01-19T20:49:14.745Z,100435.83
2023-01-19T20:51:45.491Z,100436.94
2023-01-19T20:54:15.291Z,100436.13
2023-01-19T20:56:44.086Z,100441.12
2023-01-19T20:59:13.195Z,100451.18
2023-01-19T21:01:42.416Z,100457.71
2023-01-19T21:04:11.793Z,100462.27
2023-01-19T21:06:40.799Z,100461.33
2023-01-19T21:09:09.977Z,100463.09
2023-01-19T21:11:38.971Z,100465.77
2023-01-19T21:14:08.063Z,100467.57
2023-01-19T21:16:37.135Z,100463.11
2023-01-19T21:19:06.469Z,100464.04
2023-01-19T21:21:34.863Z,100468.42
2023-01-19T21:24:04.242Z,100467.70
2023-01-19T21:26:33.850Z,100464.90
2023-01-19T21:29:03.043Z,100460.10
2023-01-19T21:31:31.766Z,100458.22
2023-01-19T21:34:00.216Z,100459.57
2023-01-19T21:36:28.706Z,100465.83
2023-01-19T21:39:01.121Z,100462.23
2023-01-19T21:41:35.187Z,100461.02
2023-01-19T21:44:03.678Z,100459.71
2023-01-19T21:46:33.788Z,100454.52
2023-01-19T21:49:08.199Z,100450.15
2023-01-19T21:51:37.422Z,100447.17
2023-01-19T21:54:06.613Z,100442.96
2023-01-19T21:56:35.307Z,100442.21
2023-01-19T21:59:04.599Z,100446.89
2023-01-19T22:01:33.714Z,100449.06
2023-01-19T22:04:02.281Z,100451.58
2023-01-19T22:06:30.753Z,100449.79
2023-01-19T22:09:00.969Z,100447.39
2023-01-19T22:11:30.459Z,100446.50
2023-01-19T22:13:59.908Z,100448.44
2023-01-19T22:16:29.007Z,100451.41
2023-01-19T22:19:01.272Z,100449.02
2023-01-19T22:21:33.531Z,100462.92
2023-01-19T22:24:03.361Z,100466.44
2023-01-19T22:26:34.573Z,100467.23
2023-01-19T22:29:04.143Z,100467.88
2023-01-19T22:31:32.755Z,100464.13
2023-01-19T22:34:01.291Z,100468.98
2023-01-19T22:36:31.743Z,100465.33
2023-01-19T22:39:02.525Z,100466.94
2023-01-19T22:41:33.201Z,100465.41
2023-01-19T22:44:03.900Z,100463.10
2023-01-19T22:46:33.929Z,100464.60
2023-01-19T22:49:02.948Z,100465.23
2023-01-19T22:51:33.693Z,100463.35
2023-01-19T22:54:02.956Z,100468.11
2023-01-19T22:56:32.965Z,100466.02
2023-01-19T22:59:01.753Z,100469.96
2023-01-19T23:01:36.853Z,100473.61
2023-01-19T23:04:06.586Z,100478.23
2023-01-19T23:06:36.644Z,100478.94
2023-01-19T23:09:07.706Z,100480.01
2023-01-19T23:11:38.904Z,100480.98
2023-01-19T23:14:08.811Z,100489.42
2023-01-19T23:16:37.087Z,100491.83
2023-01-19T23:19:05.576Z,100485.68
2023-01-19T23:21:34.366Z,100486.37
2023-01-19T23:24:03.982Z,100485.94
2023-01-19T23:26:38.426Z,100491.14
2023-01-19T23:29:12.490Z,100490.40
2023-01-19T23:31:44.436Z,100488.42
2023-01-19T23:34:13.976Z,100491.16
2023-01-19T23:36:42.963Z,100496.41
2023-01-19T23:39:20.368Z,100494.80
2023-01-19T23:41:49.790Z,100496.73
2023-01-19T23:44:18.362Z,100502.99
2023-01-19T23:46:47.240Z,100497.86
2023-01-19T23:49:15.826Z,100497.02
2023-01-19T23:51:44.110Z,100499.21
2023-01-19T23:54:12.678Z,100491.08
2023-01-19T23:56:42.929Z,100483.76
2023-01-19T23:59:14.392Z,100484.04
